This is the latest recevied weather packets stored in our database for station/object JP3QZN-13. If no packets are shown the sender has not sent any weather packets the latest 10 day(s).
| Time | Temp. | Humidity | Pressure | Rain* | Wind** | Luminosity | Snow |
|---|---|---|---|---|---|---|---|
| 1777417221 | 20° C | 53% | 1016.7 hPa | 0 mm | - | - | - |
| 1777415420 | 18.89° C | 57% | 1016.4 hPa | 0 mm | - | - | - |
| 1777413619 | 18.89° C | 59% | 1016.3 hPa | 0 mm | - | - | - |
| 1777411818 | 18.33° C | 61% | 1016 hPa | 0 mm | - | - | - |
| 1777410018 | 18.33° C | 62% | 1015.6 hPa | 0 mm | - | - | - |
| 1777408212 | 18.33° C | 63% | 1015.4 hPa | 0 mm | - | - | - |
| 1777406411 | 18.33° C | 64% | 1015.1 hPa | 0 mm | - | - | - |
| 1777404610 | 18.33° C | 65% | 1015.1 hPa | 0 mm | - | - | - |
| 1777402809 | 18.33° C | 66% | 1014.8 hPa | 0 mm | - | - | - |
| 1777401009 | 18.89° C | 67% | 1014.7 hPa | 0 mm | - | - | - |
| 1777397407 | 19.44° C | 64% | 1014.5 hPa | 0 mm | - | - | - |
| 1777395607 | 19.44° C | 63% | 1014.9 hPa | 0 mm | - | - | - |
| 1777393806 | 20° C | 63% | 1014.7 hPa | 0 mm | - | - | - |
| 1777392005 | 20° C | 65% | 1014.8 hPa | 0 mm | - | - | - |
| 1777390204 | 20.56° C | 67% | 1015 hPa | 0 mm | - | - | - |
| 1777388403 | 20.56° C | 70% | 1014.9 hPa | 0 mm | - | - | - |
| 1777386602 | 20.56° C | 70% | 1014.8 hPa | 0 mm | - | - | - |
| 1777384801 | 21.11° C | 68% | 1014.6 hPa | 0 mm | - | - | - |
| 1777381200 | 21.11° C | 67% | 1014.3 hPa | 0 mm | - | - | - |
| 1777379429 | 21.67° C | 66% | 1014.2 hPa | 0 mm | - | - | - |
| 1777377629 | 22.22° C | 63% | 1013.8 hPa | 0 mm | - | - | - |
| 1777375828 | 22.22° C | 62% | 1013.5 hPa | 0 mm | - | - | - |
| 1777374027 | 22.22° C | 60% | 1013 hPa | 0 mm | - | - | - |
| 1777372226 | 22.78° C | 56% | 1012.6 hPa | 0 mm | - | - | - |
| 1777371235 | 22.78° C | 54% | 1012.3 hPa | 0 mm | - | - | - |
* Rain latest hour (hover to see other rain measurements)
** Current wind speed in m/s (hover to see current wind gust speed)